• Join FlightAware (Why Join?)
  • Login
  • US Flag 
03:51AM EDT


 

Airport Tracker/Info


-or-


 

Live Flight TrackerFlight Track Log ✈ AWE3417 ✈ 29-Jul-2013 ✈ KDCA - KCMH

Flight Track Log - Related Links

Times and Time Zones

All times are in EDT time to prevent confusion due to time zone crossing. See the AWE3417 flight status page for this flight to view local times or setup timezone preferences in your user account.

Time Position Orientation Groundspeed Altitude Reporting Facility
EDT Latitude Longitude Course Direction KTS MPH feet Rate Location/Type
07:53PM 38.9000 -77.0833 274° West 207 238 2,200  Level Potomac TRACON
07:54PM 38.9500 -77.1333 322° Northwest 260 299 5,100 3,000 Climbing Potomac TRACON
07:55PM 38.9167 -77.3814 270° West  Level FlightAware Approximate
07:56PM 38.9333 -77.5004 270° West  Level FlightAware Approximate
07:56PM 38.9808 -77.2844 285° West 273 314 11,100  Level Washington Center
07:57PM 38.9333 -77.6257 270° West  Level FlightAware Approximate
07:57PM 38.9789 -77.4072 269° West 280 322 14,300  Level Washington Center
07:58PM 38.9333 -77.7509 270° West  Level FlightAware Approximate
07:58PM 38.9772 -77.5089 269° West 291 335 16,800  Level Washington Center
07:59PM 38.9389 -77.8760 274° West  Level FlightAware Approximate
07:59PM 38.9756 -77.6208 269° West 302 348 18,400  Level Washington Center
08:00PM 38.9714 -77.7328 267° West 310 357 21,000 2,280 Climbing Washington Center
08:01PM 38.9694 -77.8478 269° West 316 364 23,100 1,920 Climbing Washington Center
08:02PM 38.9672 -77.9650 269° West 322 371 24,900 1,860 Climbing Washington Center
08:03PM 38.9647 -78.0878 269° West 336 387 26,800 1,620 Climbing Washington Center
08:04PM 38.9600 -78.2131 267° West 348 400 28,200 1,320 Climbing Washington Center
08:05PM 38.9633 -78.3386 272° West 348 400 29,500 840 Climbing Washington Center
08:06PM 38.9667 -78.4644 272° West 353 406 30,000 240 Climbing Washington Center
08:07PM 38.9719 -78.5900 273° West 359 413 30,000  Level Washington Center
08:08PM 38.9750 -78.7211 272° West 359 413 30,000  Level Washington Center
08:09PM 38.9778 -78.8467 272° West 359 413 30,000  Level Washington Center
08:10PM 38.9806 -78.9722 272° West 364 419 30,000  Level Washington Center
08:11PM 38.9853 -79.1008 273° West 364 419 30,000  Level Washington Center
08:12PM 38.9878 -79.2264 272° West 364 419 30,000  Level Washington Center
08:13PM 38.9919 -79.3600 272° West 369 425 30,000  Level Washington Center
08:14PM 38.9961 -79.4886 272° West 369 425 30,000  Level Washington Center
08:15PM 38.9986 -79.6061 272° West 363 418 30,000  Level Washington Center
08:16PM 39.0006 -79.7292 271° West 363 418 30,000  Level Washington Center
08:18PM 39.0008 -79.9403 270° West 349 402 30,000  Level Indianapolis Center
08:19PM 39.0036 -80.0611 272° West 349 402 30,000  Level Indianapolis Center
08:20PM 39.0042 -80.1939 270° West 350 403 30,000  Level Indianapolis Center
08:21PM 39.0072 -80.3178 272° West 348 400 30,000  Level Indianapolis Center
08:22PM 39.0083 -80.4431 271° West 350 403 30,000  Level Indianapolis Center
08:23PM 39.0108 -80.5683 272° West 351 404 30,000  Level Indianapolis Center
08:24PM 39.0125 -80.6925 271° West 349 402 30,000  Level Indianapolis Center
08:25PM 39.0164 -80.8161 272° West 348 400 30,000  Level Indianapolis Center
08:26PM 39.0683 -80.9444 298° West 334 384 30,000  Level Indianapolis Center
08:27PM 39.1122 -81.0525 298° West 340 391 30,000  Level Indianapolis Center
08:28PM 39.1558 -81.1606 298° West 343 395 30,000 -600 Level Indianapolis Center
08:29PM 39.1967 -81.2703 296° West 342 394 28,800 -1,500 Descending Indianapolis Center
08:30PM 39.2367 -81.3772 296° West 335 386 27,000 -1,680 Descending Indianapolis Center
08:31PM 39.2728 -81.4789 295° West 317 365 25,400 -1,620 Descending Indianapolis Center
08:32PM 39.3086 -81.5750 296° West 301 346 23,800 -1,740 Descending Indianapolis Center
08:33PM 39.3517 -81.6897 296° West 298 343 21,900 -1,680 Descending Indianapolis Center
08:34PM 39.3858 -81.7856 295° West 295 339 20,400 -1,500 Descending Indianapolis Center
08:35PM 39.4197 -81.8769 296° West 286 329 18,900 -1,380 Descending Indianapolis Center
08:36PM 39.4517 -81.9697 294° West 283 326 17,600 -1,620 Descending Indianapolis Center
08:37PM 39.4714 -82.0294 293° West 274 315 16,400 -1,680 Descending Indianapolis Center
08:38PM 39.5036 -82.1153 296° West 274 315 15,000 -1,440 Descending Indianapolis Center
08:39PM 39.5339 -82.2011 295° West 259 298 13,600 -1,440 Descending Indianapolis Center
08:40PM 39.5508 -82.2422 298° West 257 296 12,900 -1,320 Descending Indianapolis Center
08:41PM 39.5800 -82.3236 295° West 249 287 11,600 -1,260 Descending Indianapolis Center
08:42PM 39.6203 -82.3872 309° West 239 275 10,400 -1,140 Descending Indianapolis Center
08:43PM 39.6719 -82.4369 323° Northwest 228 262 9,300 -1,080 Descending Indianapolis Center
08:44PM 39.7211 -82.4878 322° Northwest 225 259 8,300 -1,080 Descending Indianapolis Center
08:45PM 39.7711 -82.5383 322° Northwest 226 260 7,200 -1,080 Descending Indianapolis Center
08:46PM 39.8203 -82.5883 322° Northwest 224 258 6,100 -1,020 Descending Indianapolis Center
08:47PM 39.8706 -82.6372 323° Northwest 224 258 5,100 -1,080 Descending Indianapolis Center
08:48PM 39.9189 -82.6853 323° Northwest 220 253 4,000 -1,080 Descending Indianapolis Center
08:49PM 39.9656 -82.7328 322° Northwest 197 227 2,900 -840 Descending Indianapolis Center
08:50PM 39.9869 -82.7747 304° West 168 193 2,300 -720 Descending Indianapolis Center
08:51PM 39.9903 -82.8344 274° West 130 150 1,400 -720 Descending Indianapolis Center
08:52PM 39.9925 -82.8636 276° West 136 157 900 -600 Descending Indianapolis Center